TimeCDT,TemperatureF,Dew PointF,Humidity,Sea Level PressureIn,VisibilityMPH,Wind Direction,Wind SpeedMPH,Gust SpeedMPH,PrecipitationIn,Events,Conditions,WindDirDegrees,DateUTC
12:15 AM,53.6,53.6,100,29.93,3.0,SE,24.2,32.2,N/A,Rain,Light Rain,140,2013-05-27 05:15:00
12:35 AM,53.6,53.6,100,29.94,3.0,SE,26.5,34.5,N/A,Rain,Light Rain,140,2013-05-27 05:35:00
12:55 AM,53.6,53.6,100,29.90,3.0,SE,26.5,38.0,0.04,Rain,Light Rain,130,2013-05-27 05:55:00
1:15 AM,55.4,55.4,100,29.91,5.0,SSE,26.5,35.7,N/A,Rain,Light Rain,150,2013-05-27 06:15:00
1:35 AM,55.4,55.4,100,29.93,4.0,SE,20.7,32.2,N/A,,Overcast,140,2013-05-27 06:35:00
1:55 AM,55.4,55.4,100,29.90,4.0,SE,18.4,26.5,0.10,Rain,Light Rain,140,2013-05-27 06:55:00
2:15 AM,55.4,55.4,100,29.87,4.0,SE,24.2,31.1,N/A,,Overcast,130,2013-05-27 07:15:00
2:35 AM,55.4,55.4,100,29.84,4.0,SE,15.0,26.5,N/A,Rain,Light Rain,130,2013-05-27 07:35:00
2:55 AM,55.4,55.4,100,29.85,6.0,SSE,21.9,31.1,0.09,,Light Drizzle,150,2013-05-27 07:55:00
3:15 AM,55.4,55.4,100,29.78,5.0,SE,27.6,34.5,N/A,,Overcast,140,2013-05-27 08:15:00
3:35 AM,55.4,55.4,100,29.75,4.0,SE,32.2,47.2,N/A,,Overcast,130,2013-05-27 08:35:00
3:55 AM,57.2,57.2,100,29.87,9.0,NW,18.4,38.0,0.01,,Overcast,310,2013-05-27 08:55:00
4:15 AM,57.2,57.2,100,29.94,3.0,West,18.4,28.8,N/A,Rain,Rain,280,2013-05-27 09:15:00
4:35 AM,57.2,57.2,100,29.93,4.0,WNW,15.0,20.7,N/A,Rain,Heavy Rain,290,2013-05-27 09:35:00
4:55 AM,57.2,57.2,100,29.92,5.0,NW,8.1,-,0.12,Rain,Light Rain,310,2013-05-27 09:55:00
5:15 AM,55.4,55.4,100,29.93,3.0,Variable,4.6,-,N/A,Rain,Light Rain,0,2013-05-27 10:15:00
5:35 AM,55.4,55.4,100,29.91,4.0,East,9.2,-,N/A,Rain,Light Rain,100,2013-05-27 10:35:00
5:55 AM,55.4,55.4,100,29.86,4.0,East,17.3,-,0.18,Rain,Light Rain,80,2013-05-27 10:55:00
6:15 AM,55.4,55.4,100,29.79,2.5,East,20.7,29.9,N/A,Rain,Rain,80,2013-05-27 11:15:00
6:35 AM,55.4,55.4,100,29.79,3.0,ENE,20.7,27.6,N/A,Rain,Light Rain,70,2013-05-27 11:35:00
6:55 AM,55.4,55.4,100,29.82,5.0,NNE,19.6,26.5,0.15,Rain,Light Rain,30,2013-05-27 11:55:00
7:15 AM,55.4,55.4,100,29.85,4.0,North,13.8,19.6,N/A,Rain,Light Rain,10,2013-05-27 12:15:00
7:35 AM,55.4,55.4,100,29.85,3.0,NNE,13.8,-,N/A,Rain,Light Rain,30,2013-05-27 12:35:00
7:55 AM,55.4,55.4,100,29.84,4.0,ENE,10.4,-,0.02,Rain,Light Rain,60,2013-05-27 12:55:00
8:15 AM,55.4,55.4,100,29.83,4.0,ENE,9.2,-,N/A,,Light Drizzle,60,2013-05-27 13:15:00
8:35 AM,55.4,55.4,100,29.85,7.0,NE,9.2,16.1,N/A,,Overcast,50,2013-05-27 13:35:00
8:55 AM,55.4,55.4,100,29.85,10.0,ENE,13.8,-,N/A,,Overcast,60,2013-05-27 13:55:00
9:15 AM,55.4,55.4,100,29.85,10.0,NE,13.8,-,N/A,,Overcast,50,2013-05-27 14:15:00
9:35 AM,55.4,55.4,100,29.84,10.0,ENE,12.7,-,N/A,,Overcast,60,2013-05-27 14:35:00
9:55 AM,55.4,55.4,100,29.84,9.0,ENE,13.8,-,N/A,,Overcast,60,2013-05-27 14:55:00
10:15 AM,55.4,55.4,100,29.81,2.5,ENE,18.4,-,N/A,,Overcast,60,2013-05-27 15:15:00
10:35 AM,55.4,55.4,100,29.80,1.5,ENE,18.4,25.3,N/A,,Overcast,60,2013-05-27 15:35:00
10:55 AM,55.4,55.4,100,29.79,1.5,ENE,17.3,24.2,0.01,,Overcast,70,2013-05-27 15:55:00
11:15 AM,57.2,57.2,100,29.79,1.8,East,18.4,24.2,N/A,,Overcast,80,2013-05-27 16:15:00
11:35 AM,57.2,57.2,100,29.79,1.8,East,17.3,24.2,N/A,,Overcast,80,2013-05-27 16:35:00
11:55 AM,57.2,57.2,100,29.79,0.5,East,18.4,24.2,N/A,Fog,Fog,80,2013-05-27 16:55:00
12:15 PM,57.2,57.2,100,29.79,0.5,East,16.1,23.0,N/A,Fog,Fog,80,2013-05-27 17:15:00
12:35 PM,57.2,57.2,100,29.79,0.8,East,13.8,-,N/A,,Light Drizzle,90,2013-05-27 17:35:00
12:55 PM,57.2,57.2,100,29.79,1.5,East,12.7,19.6,0.01,,Overcast,100,2013-05-27 17:55:00
1:15 PM,57.2,57.2,100,29.80,1.0,East,15.0,-,N/A,,Light Drizzle,100,2013-05-27 18:15:00
1:35 PM,57.2,57.2,100,29.79,0.8,East,13.8,-,N/A,,Light Drizzle,90,2013-05-27 18:35:00
1:55 PM,59.0,59.0,100,29.79,1.0,East,10.4,18.4,0.02,,Light Drizzle,80,2013-05-27 18:55:00
2:15 PM,59.0,59.0,100,29.80,1.0,East,10.4,19.6,N/A,,Overcast,90,2013-05-27 19:15:00
2:35 PM,59.0,59.0,100,29.79,1.8,East,11.5,-,N/A,,Overcast,90,2013-05-27 19:35:00
2:55 PM,60.8,60.8,100,29.79,2.5,East,9.2,-,N/A,,Overcast,90,2013-05-27 19:55:00
3:15 PM,60.8,60.8,100,29.79,2.5,East,5.8,-,N/A,,Overcast,90,2013-05-27 20:15:00
3:35 PM,62.6,62.6,100,29.78,3.0,East,4.6,-,N/A,,Overcast,100,2013-05-27 20:35:00
3:55 PM,64.4,62.6,94,29.77,6.0,Calm,Calm,-,N/A,,Overcast,0,2013-05-27 20:55:00
4:15 PM,64.4,60.8,88,29.77,10.0,SE,4.6,-,N/A,,Overcast,130,2013-05-27 21:15:00
4:35 PM,64.4,60.8,88,29.76,10.0,SE,6.9,-,N/A,,Overcast,140,2013-05-27 21:35:00
4:55 PM,64.4,60.8,88,29.76,10.0,SE,3.5,-,N/A,,Overcast,130,2013-05-27 21:55:00
5:15 PM,64.4,60.8,88,29.76,-9999.0,SE,5.8,-,N/A,,Unknown,140,2013-05-27 22:15:00
5:35 PM,64.4,60.8,88,29.76,10.0,SE,6.9,-,N/A,,Overcast,140,2013-05-27 22:35:00
5:55 PM,64.4,60.8,88,29.76,10.0,SSE,6.9,-,N/A,,Overcast,160,2013-05-27 22:55:00
6:15 PM,64.4,60.8,88,29.76,10.0,SSE,4.6,-,N/A,,Overcast,160,2013-05-27 23:15:00
6:35 PM,62.6,60.8,94,29.76,10.0,ESE,5.8,-,N/A,,Overcast,110,2013-05-27 23:35:00
6:55 PM,62.6,62.6,100,29.75,5.0,East,6.9,-,N/A,,Overcast,80,2013-05-27 23:55:00
7:15 PM,62.6,62.6,100,29.76,3.0,East,6.9,-,N/A,,Overcast,80,2013-05-28 00:15:00
7:35 PM,62.6,62.6,100,29.76,3.0,ENE,8.1,-,N/A,,Overcast,70,2013-05-28 00:35:00
7:55 PM,60.8,60.8,100,29.77,3.0,ENE,5.8,-,N/A,,Overcast,70,2013-05-28 00:55:00
8:15 PM,60.8,60.8,100,29.76,3.0,East,9.2,-,N/A,,Overcast,80,2013-05-28 01:15:00
8:35 PM,60.8,60.8,100,29.76,3.0,East,6.9,-,N/A,,Overcast,90,2013-05-28 01:35:00
8:55 PM,60.8,60.8,100,29.77,4.0,East,8.1,-,N/A,,Overcast,100,2013-05-28 01:55:00
9:15 PM,60.8,60.8,100,29.75,5.0,East,10.4,-,N/A,,Overcast,80,2013-05-28 02:15:00
9:35 PM,60.8,60.8,100,29.75,5.0,East,8.1,-,N/A,,Overcast,80,2013-05-28 02:35:00
9:55 PM,60.8,60.8,100,29.75,5.0,East,8.1,-,N/A,,Overcast,80,2013-05-28 02:55:00
10:15 PM,60.8,60.8,100,29.76,3.0,East,9.2,-,N/A,,Overcast,90,2013-05-28 03:15:00
10:35 PM,60.8,60.8,100,29.77,3.0,East,6.9,-,N/A,,Overcast,90,2013-05-28 03:35:00
10:55 PM,60.8,60.8,100,29.77,2.5,East,6.9,-,N/A,,Overcast,100,2013-05-28 03:55:00
11:15 PM,60.8,60.8,100,29.76,2.0,East,8.1,-,N/A,,Overcast,100,2013-05-28 04:15:00
11:35 PM,60.8,60.8,100,29.76,1.8,East,6.9,-,N/A,,Overcast,100,2013-05-28 04:35:00
11:55 PM,60.8,60.8,100,29.76,1.0,East,4.6,-,N/A,,Overcast,100,2013-05-28 04:55:00